Time;durP1;ratioP1;P1;durP2;ratioP2;P2;SDS_P1;SDS_P2;PMS_P1;PMS_P2;Temp;Humidity;BMP_temperature;BMP_pressure;BME280_temperature;BME280_humidity;BME280_pressure;Samples;Min_cycle;Max_cycle;Signal;HPM_P1;HPM_P2
2022/02/02 00:00:59;;;;;;;5.63;2.97;;;;;;;1.01;89.40;98429.75;4918885;29;20048;-69
2022/02/02 00:03:29;;;;;;;7.90;3.15;;;;;;;1.05;89.25;98425.66;4918606;29;20059;-69
2022/02/02 00:06:07;;;;;;;5.47;2.80;;;;;;;1.10;89.10;98431.59;4919303;29;20046;-69
2022/02/02 00:08:48;;;;;;;6.85;3.03;;;;;;;1.12;89.55;98420.75;4918729;29;20434;-69
2022/02/02 00:14:12;;;;;;;6.33;3.47;;;;;;;1.13;89.23;98412.38;4918729;29;20565;-69
2022/02/02 00:16:49;;;;;;;6.72;3.53;;;;;;;1.16;88.85;98417.47;4918660;29;20052;-69
2022/02/02 00:19:28;;;;;;;8.10;3.53;;;;;;;1.16;89.36;98431.69;4918294;29;20054;-69
2022/02/02 00:22:04;;;;;;;7.47;3.65;;;;;;;1.16;88.94;98427.50;4918507;29;20098;-69
2022/02/02 00:24:40;;;;;;;7.22;3.47;;;;;;;1.15;88.90;98425.78;4918201;29;20486;-69
2022/02/02 00:27:14;;;;;;;8.40;3.65;;;;;;;1.13;89.88;98424.94;4918373;29;20466;-69
2022/02/02 00:29:47;;;;;;;9.05;3.90;;;;;;;1.14;89.74;98419.09;4901433;29;20071;-69
2022/02/02 00:32:27;;;;;;;6.80;3.80;;;;;;;1.12;89.21;98430.78;4917921;29;20048;-70
2022/02/02 00:34:57;;;;;;;6.95;3.20;;;;;;;1.13;89.22;98426.59;4918043;29;20510;-70
2022/02/02 00:37:26;;;;;;;9.93;3.67;;;;;;;1.19;88.98;98435.09;4918018;29;20068;-70
2022/02/02 00:39:55;;;;;;;7.88;3.45;;;;;;;1.23;89.89;98434.31;4917977;29;20071;-70
2022/02/02 00:42:29;;;;;;;8.20;4.22;;;;;;;1.24;89.29;98420.94;4918063;29;20397;-70
2022/02/02 00:44:58;;;;;;;7.47;3.88;;;;;;;1.23;89.06;98414.22;4917835;29;20126;-70
2022/02/02 00:47:36;;;;;;;7.93;4.15;;;;;;;1.21;89.71;98404.97;4917807;29;20044;-70
2022/02/02 00:50:07;;;;;;;7.28;3.80;;;;;;;1.20;89.28;98394.06;4917848;29;20056;-70
2022/02/02 00:52:35;;;;;;;9.52;4.47;;;;;;;1.20;89.12;98399.09;4919979;29;20055;-71
2022/02/02 00:55:08;;;;;;;9.65;4.72;;;;;;;1.21;89.60;98385.72;4920367;29;20076;-71
2022/02/02 00:57:37;;;;;;;7.88;3.95;;;;;;;1.19;89.17;98366.41;4918214;29;20506;-71
2022/02/02 01:00:07;;;;;;;9.20;4.93;;;;;;;1.15;88.95;98375.56;4917594;29;20040;-71
2022/02/02 01:02:37;;;;;;;8.00;4.50;;;;;;;1.19;89.17;98374.81;4901086;29;20095;-71
2022/02/02 01:05:10;;;;;;;8.73;4.63;;;;;;;1.19;89.00;98362.25;4916707;29;20048;-71
2022/02/02 01:08:01;;;;;;;8.63;4.28;;;;;;;1.20;89.18;98368.94;4917850;29;20052;-71
2022/02/02 01:10:37;;;;;;;8.90;4.43;;;;;;;1.21;89.11;98365.63;4917516;29;20506;-71
2022/02/02 01:13:22;;;;;;;7.90;4.45;;;;;;;1.23;89.75;98363.97;4917639;29;20513;-71
2022/02/02 01:19:00;;;;;;;9.32;4.43;;;;;;;1.25;89.15;98362.31;4878035;29;20064;-71
2022/02/02 01:21:33;;;;;;;9.70;4.75;;;;;;;1.24;89.72;98365.66;4917724;29;20048;-71
2022/02/02 01:29:30;;;;;;;9.27;4.55;;;;;;;1.19;89.33;98371.44;4876644;29;20045;-71
2022/02/02 01:32:02;;;;;;;8.73;4.57;;;;;;;1.21;89.29;98364.75;4917541;29;20075;-71
2022/02/02 01:34:33;;;;;;;9.18;4.18;;;;;;;1.23;89.19;98363.97;4917168;29;20040;-71
2022/02/02 01:37:02;;;;;;;9.60;4.60;;;;;;;1.18;89.48;98365.56;4917569;29;20135;-71
2022/02/02 01:39:32;;;;;;;8.35;4.13;;;;;;;1.11;89.56;98353.75;4917200;29;20048;-71
2022/02/02 01:42:06;;;;;;;11.00;4.50;;;;;;;1.09;89.55;98352.03;4917173;29;20059;-71
2022/02/02 01:44:45;;;;;;;11.07;4.35;;;;;;;1.06;89.09;98357.84;4917153;29;20056;-71
2022/02/02 01:47:14;;;;;;;12.18;4.65;;;;;;;1.09;89.13;98354.53;4917175;29;20052;-70
2022/02/02 01:55:18;;;;;;;9.43;5.05;;;;;;;1.10;89.38;98336.16;4911737;29;20091;-70
2022/02/02 01:58:06;;;;;;;10.02;4.35;;;;;;;1.13;89.66;98332.00;4917116;29;20063;-70
2022/02/02 02:00:36;;;;;;;8.40;4.35;;;;;;;1.12;89.53;98324.44;4917648;29;20459;-70
2022/02/02 02:03:04;;;;;;;7.45;4.00;;;;;;;1.10;89.85;98321.94;4917306;29;20048;-69
2022/02/02 02:05:35;;;;;;;9.13;4.50;;;;;;;1.10;89.83;98318.56;4916898;29;20096;-69
2022/02/02 02:08:03;;;;;;;11.57;4.60;;;;;;;1.06;89.80;98322.69;4917310;29;20056;-69
2022/02/02 02:10:33;;;;;;;8.63;4.15;;;;;;;1.05;89.89;98323.53;4917532;29;20041;-69
2022/02/02 02:13:06;;;;;;;14.03;5.70;;;;;;;1.07;89.97;98321.88;4917143;29;20509;-69
2022/02/02 02:15:36;;;;;;;10.07;4.93;;;;;;;1.10;89.52;98321.94;4918321;29;20052;-69
2022/02/02 02:18:05;;;;;;;10.70;5.10;;;;;;;1.12;90.08;98320.28;4920429;29;20052;-69
2022/02/02 02:20:36;;;;;;;13.45;4.68;;;;;;;1.14;89.65;98317.78;4920786;29;20032;-69
2022/02/02 02:23:06;;;;;;;10.80;4.90;;;;;;;1.15;90.05;98317.78;4920675;29;20052;-69
2022/02/02 02:25:40;;;;;;;14.40;4.93;;;;;;;1.15;89.71;98322.81;4920295;29;20100;-69
2022/02/02 02:28:20;;;;;;;11.32;4.43;;;;;;;1.12;89.88;98320.28;4920401;29;20213;-69
2022/02/02 02:30:54;;;;;;;8.05;4.20;;;;;;;1.13;89.87;98316.91;4920549;29;20104;-68
2022/02/02 02:57:55;;;;;;;10.55;4.15;;;;;;;1.05;89.77;98293.38;4919994;29;20055;-67
2022/02/02 03:00:41;;;;;;;10.90;5.25;;;;;;;1.03;90.02;98287.47;4920049;29;20115;-67
2022/02/02 03:30:15;;;;;;;7.70;2.90;;;;;;;1.76;89.97;98278.34;4919555;29;20493;-67
2022/02/02 03:51:45;;;;;;;5.50;2.90;;;;;;;2.07;90.05;98280.34;4919045;29;20055;-68
2022/02/02 04:00:00;;;;;;;5.95;2.40;;;;;;;2.01;89.28;98287.88;4918442;29;20112;-67
2022/02/02 04:02:49;;;;;;;4.55;2.47;;;;;;;1.98;89.30;98282.78;4901821;29;20072;-67
2022/02/02 04:05:27;;;;;;;4.90;2.20;;;;;;;2.07;89.59;98294.59;4901833;29;20055;-67
2022/02/02 04:08:08;;;;;;;4.38;2.03;;;;;;;2.01;89.25;98301.28;4918513;29;20056;-66
2022/02/02 04:10:40;;;;;;;4.07;2.05;;;;;;;2.00;89.34;98291.19;4918631;29;20052;-66
2022/02/02 04:13:17;;;;;;;3.60;2.17;;;;;;;1.99;88.34;98309.66;4918941;29;20052;-66
2022/02/02 04:37:55;;;;;;;5.65;2.25;;;;;;;2.12;88.23;98296.34;4917860;29;20111;-65
2022/02/02 04:56:53;;;;;;;4.82;1.73;;;;;;;2.46;88.54;98297.50;4918039;29;20060;-65
2022/02/02 04:59:31;;;;;;;3.38;1.70;;;;;;;2.46;88.59;98293.31;4917704;29;20080;-65
2022/02/02 05:05:14;;;;;;;3.95;2.00;;;;;;;2.45;87.66;98300.84;4917645;29;20052;-65
2022/02/02 05:07:58;;;;;;;3.70;1.75;;;;;;;2.46;87.26;98303.41;4917671;29;20045;-65
2022/02/02 05:10:39;;;;;;;4.68;2.22;;;;;;;2.33;87.69;98310.81;4917489;29;20076;-65
2022/02/02 05:16:00;;;;;;;2.60;1.23;;;;;;;2.40;88.09;98318.44;4917376;29;20051;-65
2022/02/02 05:19:07;;;;;;;3.38;1.50;;;;;;;2.52;87.27;98323.56;4917424;29;20079;-65
2022/02/02 05:22:22;;;;;;;2.65;1.20;;;;;;;2.59;87.79;98330.34;4917320;29;20051;-65
2022/02/02 05:44:14;;;;;;;3.85;1.50;;;;;;;2.36;87.06;98336.84;4917485;29;20040;-65
2022/02/02 05:49:43;;;;;;;3.47;1.58;;;;;;;2.35;87.34;98339.38;4917477;29;19927;-65
2022/02/02 05:52:16;;;;;;;2.67;1.60;;;;;;;2.25;86.45;98342.63;4920964;29;20075;-65
2022/02/02 05:54:53;;;;;;;4.27;1.60;;;;;;;2.21;86.89;98356.00;4921529;29;20036;-65
2022/02/02 05:57:25;;;;;;;3.22;1.45;;;;;;;2.17;87.03;98345.06;4921112;29;20052;-65
2022/02/02 05:59:59;;;;;;;11.38;4.60;;;;;;;2.10;86.91;98343.28;4920780;29;20052;-64
2022/02/02 06:02:32;;;;;;;13.52;4.55;;;;;;;2.12;87.12;98351.69;4920978;29;20048;-65
2022/02/02 06:05:07;;;;;;;15.75;6.05;;;;;;;2.13;87.03;98337.47;4920960;29;20048;-65
2022/02/02 06:07:37;;;;;;;10.35;3.90;;;;;;;2.18;86.27;98340.88;4920625;29;20099;-66
2022/02/02 06:10:12;;;;;;;12.95;5.35;;;;;;;2.17;87.11;98339.16;4920649;29;20104;-66
2022/02/02 06:12:42;;;;;;;11.52;4.20;;;;;;;2.07;86.72;98348.28;4920473;29;20071;-65
2022/02/02 06:15:16;;;;;;;6.82;2.95;;;;;;;2.01;86.11;98349.09;4903808;29;20040;-65
2022/02/02 06:17:50;;;;;;;4.32;2.10;;;;;;;2.04;87.09;98348.25;4920724;29;20048;-65
2022/02/02 06:20:19;;;;;;;3.83;1.63;;;;;;;2.03;86.21;98356.63;4920460;29;20059;-65
2022/02/02 06:22:55;;;;;;;3.60;1.63;;;;;;;2.06;87.08;98360.84;4920624;29;20403;-66
2022/02/02 06:25:42;;;;;;;2.97;1.63;;;;;;;2.04;86.16;98358.31;4920681;29;20096;-66
2022/02/02 06:28:21;;;;;;;3.53;1.50;;;;;;;2.09;86.63;98366.75;4920550;29;20079;-66
2022/02/02 06:30:57;;;;;;;4.03;2.08;;;;;;;2.18;87.15;98366.03;4920250;29;20056;-65
2022/02/02 06:33:53;;;;;;;7.25;3.72;;;;;;;2.32;86.32;98365.34;4920426;29;20054;-65
2022/02/02 06:36:22;;;;;;;4.00;2.15;;;;;;;2.37;86.67;98360.38;4920109;29;20076;-65
2022/02/02 06:38:55;;;;;;;4.78;1.90;;;;;;;2.44;86.97;98378.06;4920411;29;20070;-65
2022/02/02 06:41:29;;;;;;;2.88;1.27;;;;;;;2.50;86.41;98370.56;4920345;29;20064;-65
2022/02/02 06:43:58;;;;;;;2.08;1.13;;;;;;;2.51;86.67;98372.25;4920343;29;20071;-65
2022/02/02 06:46:33;;;;;;;4.35;1.48;;;;;;;2.45;86.47;98371.34;4919894;29;20108;-65
2022/02/02 06:49:05;;;;;;;5.15;1.42;;;;;;;2.45;85.90;98374.69;4920232;29;20387;-65
2022/02/02 06:51:43;;;;;;;3.55;1.48;;;;;;;2.49;86.48;98381.47;4920125;29;20052;-65
2022/02/02 06:54:31;;;;;;;2.63;1.00;;;;;;;2.46;86.59;98389.00;4919526;29;20060;-65
2022/02/02 06:57:13;;;;;;;5.47;1.98;;;;;;;2.78;85.80;98403.56;4920050;29;20127;-64
2022/02/02 06:59:55;;;;;;;4.60;2.10;;;;;;;3.05;86.92;98406.31;4920025;29;20410;-65
2022/02/02 07:02:41;;;;;;;3.90;1.67;;;;;;;3.13;85.84;98399.66;4918360;29;20058;-64
2022/02/02 07:05:29;;;;;;;5.57;1.50;;;;;;;3.08;85.70;98401.31;4919670;29;20044;-65
2022/02/02 07:13:58;;;;;;;2.90;1.55;;;;;;;2.98;85.30;98394.50;4920090;29;20052;-65
2022/02/02 07:16:41;;;;;;;4.18;1.35;;;;;;;3.15;85.56;98401.38;4919412;29;20561;-64
2022/02/02 07:19:24;;;;;;;2.75;1.20;;;;;;;3.27;85.15;98398.09;4919485;29;20056;-64
2022/02/02 07:30:24;;;;;;;3.38;1.20;;;;;;;3.40;84.93;98392.31;4919419;29;20116;-64
2022/02/02 07:33:06;;;;;;;2.97;1.40;;;;;;;3.47;84.23;98395.72;4919207;29;20430;-65
2022/02/02 07:35:52;;;;;;;1.83;1.20;;;;;;;3.61;84.75;98405.06;4919024;29;20044;-65
2022/02/02 07:38:26;;;;;;;3.28;1.00;;;;;;;3.73;84.61;98395.03;4919008;29;20495;-64
2022/02/02 07:41:07;;;;;;;3.58;1.10;;;;;;;3.95;84.02;98396.84;4918990;29;20052;-64
2022/02/02 07:43:42;;;;;;;3.03;1.20;;;;;;;3.97;83.79;98390.09;4918948;29;20063;-65
2022/02/02 07:46:27;;;;;;;3.47;1.10;;;;;;;4.14;83.30;98414.56;4919062;29;20066;-65
2022/02/02 07:48:57;;;;;;;3.22;1.15;;;;;;;4.29;82.99;98402.00;4914132;29;20040;-66
2022/02/02 07:51:30;;;;;;;4.80;1.30;;;;;;;4.55;82.69;98430.72;4918700;29;20083;-65
2022/02/02 07:54:03;;;;;;;3.90;1.20;;;;;;;4.52;82.29;98436.59;4918606;29;20499;-65
2022/02/02 07:56:42;;;;;;;5.00;1.40;;;;;;;4.36;82.13;98444.13;4912755;29;20546;-66
2022/02/02 08:01:59;;;;;;;2.33;1.17;;;;;;;3.99;82.45;98443.09;4918902;29;20111;-65
2022/02/02 08:04:30;;;;;;;2.45;0.90;;;;;;;3.88;81.92;98440.53;4919110;29;20502;-65
2022/02/02 08:06:59;;;;;;;2.78;1.50;;;;;;;3.82;82.54;98445.53;4913666;29;20131;-65
2022/02/02 08:09:35;;;;;;;6.30;1.65;;;;;;;3.78;82.28;98446.38;4918073;29;20094;-66
2022/02/02 08:12:15;;;;;;;2.60;1.27;;;;;;;3.77;82.67;98446.34;4918642;29;20111;-65
2022/02/02 08:14:49;;;;;;;2.90;1.30;;;;;;;3.77;82.59;98442.13;4918310;29;20084;-65
2022/02/02 08:17:19;;;;;;;2.75;1.60;;;;;;;3.65;82.77;98441.22;4901424;29;20056;-66
2022/02/02 08:19:51;;;;;;;2.47;1.20;;;;;;;3.64;82.64;98435.34;4918279;29;20052;-67
2022/02/02 08:22:20;;;;;;;2.10;1.02;;;;;;;3.63;83.31;98441.22;4918212;29;20055;-66
2022/02/02 08:24:49;;;;;;;3.97;1.20;;;;;;;3.64;82.77;98432.81;4918442;29;20063;-66
2022/02/02 08:27:27;;;;;;;5.90;1.42;;;;;;;3.86;82.72;98452.28;4918119;29;20052;-66
2022/02/02 08:29:56;;;;;;;4.15;2.00;;;;;;;4.10;83.35;98446.53;4918373;29;20466;-66
2022/02/02 08:32:30;;;;;;;6.55;1.77;;;;;;;4.15;82.89;98454.97;4918013;29;20055;-66
2022/02/02 08:35:26;;;;;;;6.22;1.63;;;;;;;4.16;83.21;98461.72;4918017;29;20103;-66
2022/02/02 08:38:00;;;;;;;3.90;1.67;;;;;;;4.14;83.63;98462.53;4909353;29;20052;-66
2022/02/02 08:40:39;;;;;;;2.28;1.10;;;;;;;4.06;82.88;98455.78;4918076;29;20127;-66
2022/02/02 08:43:12;;;;;;;5.85;1.48;;;;;;;4.04;83.26;98457.44;4918207;29;20055;-66
2022/02/02 08:45:44;;;;;;;3.97;1.50;;;;;;;4.06;82.69;98445.66;4901088;29;20063;-66
2022/02/02 08:48:22;;;;;;;4.35;1.63;;;;;;;4.13;83.62;98444.00;4918119;29;20048;-66
2022/02/02 08:50:56;;;;;;;6.10;1.73;;;;;;;4.10;82.90;98440.66;4917798;29;20439;-66
2022/02/02 08:53:34;;;;;;;8.32;1.67;;;;;;;4.10;82.70;98440.66;4916038;29;20135;-66
2022/02/02 08:59:22;;;;;;;4.15;1.38;;;;;;;4.24;82.80;98433.97;4917900;29;20052;-66
2022/02/02 09:01:53;;;;;;;4.70;1.60;;;;;;;4.30;82.68;98428.94;4900901;29;20074;-66
2022/02/02 09:07:04;;;;;;;5.63;2.00;;;;;;;4.53;82.61;98425.66;4917893;29;20048;-65
2022/02/02 09:09:50;;;;;;;4.82;1.90;;;;;;;4.74;82.67;98432.44;4914298;29;20082;-66
2022/02/02 09:20:28;;;;;;;5.13;1.63;;;;;;;5.27;81.38;98435.88;4898804;29;20071;-65
2022/02/02 09:25:39;;;;;;;5.88;1.30;;;;;;;5.37;80.71;98442.59;4913956;29;20036;-66
2022/02/02 09:36:01;;;;;;;6.43;1.63;;;;;;;5.14;79.67;98449.34;4900729;29;20048;-68
2022/02/02 09:38:30;;;;;;;7.30;2.65;;;;;;;5.06;79.50;98445.16;4912176;29;20406;-66
2022/02/02 09:43:48;;;;;;;25.77;13.00;;;;;;;5.03;79.34;98457.78;4516498;23;20514;-68
2022/02/02 09:47:15;;;;;;;3.80;2.00;;;;;;;5.17;78.84;98459.47;4921643;29;20493;-69
2022/02/02 09:49:53;;;;;;;5.32;2.88;;;;;;;5.39;78.96;98456.13;4937906;29;20047;-68
2022/02/02 09:52:34;;;;;;;5.18;2.05;;;;;;;5.44;78.35;98443.47;4919234;29;20497;-68
2022/02/02 09:55:09;;;;;;;5.10;2.05;;;;;;;5.44;78.28;98440.94;4936059;29;20535;-68
2022/02/02 10:00:48;;;;;;;5.50;1.80;;;;;;;5.82;77.39;98435.81;4936026;29;20115;-69
2022/02/02 10:03:35;;;;;;;5.30;2.40;;;;;;;6.01;77.65;98432.44;4932612;29;20044;-69
2022/02/02 10:06:12;;;;;;;3.83;1.42;;;;;;;5.96;76.91;98424.00;4934513;29;20111;-69
2022/02/02 10:14:16;;;;;;;5.03;1.50;;;;;;;5.59;76.14;98435.84;4955338;29;20497;-69
2022/02/02 10:16:50;;;;;;;4.13;1.35;;;;;;;5.55;75.60;98431.63;4939043;29;20490;-69
2022/02/02 10:19:21;;;;;;;5.80;1.30;;;;;;;5.64;75.56;98438.41;4936133;29;20079;-69
2022/02/02 10:21:55;;;;;;;4.65;1.50;;;;;;;5.71;75.51;98440.06;4919030;29;20490;-69
2022/02/02 10:24:47;;;;;;;5.68;1.73;;;;;;;5.78;74.64;98439.22;4936124;29;20107;-69
2022/02/02 10:27:23;;;;;;;6.53;2.60;;;;;;;5.83;74.80;98437.53;4916773;29;20067;-69
2022/02/02 10:30:14;;;;;;;25.52;11.07;;;;;;;5.82;74.35;98435.81;4917695;29;20459;-69
2022/02/02 10:32:45;;;;;;;14.82;6.75;;;;;;;5.86;74.01;98440.06;4925938;29;20055;-69
2022/02/02 10:35:30;;;;;;;5.95;2.55;;;;;;;6.03;74.46;98428.19;4917669;29;20071;-69
2022/02/02 10:38:21;;;;;;;6.57;3.35;;;;;;;6.12;73.92;98432.41;4919996;29;20048;-69
2022/02/02 10:40:55;;;;;;;24.17;12.02;;;;;;;6.24;73.83;98435.72;4920153;29;20044;-69
2022/02/02 10:43:32;;;;;;;25.10;12.30;;;;;;;6.19;73.57;98437.41;4919018;29;20052;-70
2022/02/02 10:46:25;;;;;;;35.50;16.23;;;;;;;6.30;72.91;98434.88;4920342;29;20058;-70
2022/02/02 10:49:00;;;;;;;16.13;7.60;;;;;;;6.41;72.75;98428.91;4920250;29;20087;-69
2022/02/02 10:51:38;;;;;;;32.80;14.75;;;;;;;6.42;72.71;98440.72;4926067;29;20512;-69
2022/02/02 10:54:20;;;;;;;15.95;8.13;;;;;;;6.41;72.28;98439.03;4936730;29;20509;-69
2022/02/02 10:56:57;;;;;;;23.80;9.45;;;;;;;6.33;72.26;98433.19;4938730;29;20050;-70
2022/02/02 10:59:35;;;;;;;21.58;9.77;;;;;;;6.29;72.43;98431.47;4938711;29;20082;-69
2022/02/02 11:07:25;;;;;;;11.05;4.70;;;;;;;7.34;70.09;98457.09;4929592;29;20593;-71
2022/02/02 11:10:12;;;;;;;9.77;4.82;;;;;;;7.69;69.37;98455.09;4928358;29;20543;-70
2022/02/02 11:12:47;;;;;;;6.30;2.45;;;;;;;7.93;67.79;98457.41;4929107;29;20048;-69
2022/02/02 11:15:33;;;;;;;9.27;2.55;;;;;;;7.81;67.56;98460.06;4927884;29;20485;-69
2022/02/02 11:18:10;;;;;;;3.58;1.65;;;;;;;7.84;66.82;98462.56;4929731;29;20051;-70
2022/02/02 11:20:46;;;;;;;2.92;1.27;;;;;;;8.15;65.65;98459.72;4934243;29;20047;-69
2022/02/02 11:23:19;;;;;;;2.93;1.13;;;;;;;8.20;65.96;98458.81;4934870;29;20052;-68
2022/02/02 11:25:54;;;;;;;2.45;0.82;;;;;;;8.23;65.53;98457.94;4944031;29;20062;-68
2022/02/02 11:28:36;;;;;;;3.42;1.23;;;;;;;8.04;65.71;98458.13;4940996;29;20052;-67
2022/02/02 11:31:11;;;;;;;4.07;1.27;;;;;;;7.93;65.76;98474.31;4957341;29;20062;-67
2022/02/02 11:33:46;;;;;;;3.00;1.10;;;;;;;7.90;65.64;98469.28;4957325;29;20125;-65
2022/02/02 11:36:23;;;;;;;3.25;1.13;;;;;;;7.68;65.11;98461.00;4957565;29;20134;-65
2022/02/02 11:38:55;;;;;;;4.47;0.90;;;;;;;7.41;65.97;98466.34;4957271;29;20045;-65
2022/02/02 11:44:39;;;;;;;5.45;1.13;;;;;;;7.05;65.30;98469.13;4937546;29;20059;-65
2022/02/02 11:47:23;;;;;;;2.20;0.98;;;;;;;7.15;65.76;98476.66;4937687;29;20490;-65
2022/02/02 11:49:55;;;;;;;4.38;1.33;;;;;;;7.42;65.09;98460.38;4938323;29;20170;-65
2022/02/02 11:52:37;;;;;;;3.30;1.20;;;;;;;7.51;64.80;98474.72;4938357;29;20044;-65
2022/02/02 11:55:28;;;;;;;4.93;1.33;;;;;;;7.67;64.84;98479.66;4937740;29;20054;-64
2022/02/02 11:58:02;;;;;;;4.68;1.67;;;;;;;7.80;64.95;98498.13;4937427;29;20058;-64
2022/02/02 12:00:53;;;;;;;3.38;1.10;;;;;;;7.39;65.04;98506.94;4944530;29;20043;-64
2022/02/02 12:03:48;;;;;;;4.95;1.33;;;;;;;6.72;67.01;98513.22;4956803;29;20067;-63
2022/02/02 12:06:37;;;;;;;3.05;0.93;;;;;;;6.23;69.09;98527.78;4939835;29;20047;-64
2022/02/02 12:09:19;;;;;;;2.55;1.00;;;;;;;5.83;70.42;98524.41;4940744;29;20052;-64
2022/02/02 12:48:08;;;;;;;2.35;1.42;;;;;;;7.95;70.41;98538.66;5132895;27;20368;-63
2022/02/02 12:56:34;;;;;;;2.92;1.08;;;;;;;8.56;66.65;98546.56;5125515;28;20036;-63
2022/02/02 13:01:48;;;;;;;2.33;1.00;;;;;;;8.58;63.70;98567.72;5128293;28;20047;-63
2022/02/02 13:04:31;;;;;;;2.78;0.80;;;;;;;8.66;63.51;98555.78;5131062;28;20416;-64
2022/02/02 13:07:08;;;;;;;2.85;0.90;;;;;;;8.54;63.26;98568.63;5129970;28;20050;-63
2022/02/02 13:09:38;;;;;;;1.88;0.82;;;;;;;8.51;61.71;98578.81;5128141;28;20485;-64
2022/02/02 13:12:23;;;;;;;4.40;1.10;;;;;;;8.51;61.82;98586.44;5131255;28;20497;-63
2022/02/02 13:20:48;;;;;;;3.72;1.13;;;;;;;8.76;61.39;98587.84;5130780;27;20039;-63
2022/02/02 13:23:24;;;;;;;2.15;1.00;;;;;;;8.80;61.01;98579.34;5127727;27;20047;-64
2022/02/02 13:26:00;;;;;;;3.08;1.23;;;;;;;8.80;60.30;98584.44;5126142;28;20043;-63
2022/02/02 13:28:51;;;;;;;2.22;1.20;;;;;;;8.84;60.67;98591.16;5131520;27;20097;-63
2022/02/02 13:31:35;;;;;;;4.20;1.40;;;;;;;8.88;60.40;98607.25;5131178;27;20108;-64
2022/02/02 13:34:19;;;;;;;3.85;1.05;;;;;;;8.87;60.33;98606.41;5131312;27;20097;-63
2022/02/02 13:45:23;;;;;;;4.30;1.20;;;;;;;8.59;60.78;98633.00;5130061;28;20050;-63
2022/02/02 13:48:11;;;;;;;2.70;0.85;;;;;;;8.23;60.44;98640.91;5128996;28;20070;-63
2022/02/02 13:56:58;;;;;;;4.97;1.48;;;;;;;7.41;62.26;98575.47;5126230;28;20468;-63
2022/02/02 14:03:48;;;;;;;;;;;;;;;7.39;62.49;98655.81;5116315;28;20040;-63
2022/02/02 14:07:58;;;;;;;2.33;1.02;;;;;;;7.10;62.85;98660.19;4600492;22;20048;-67
2022/02/02 14:32:45;;;;;;;10.95;5.40;;;;;;;6.68;61.45;98672.13;5135461;27;20392;-63
2022/02/02 14:35:16;;;;;;;5.47;2.88;;;;;;;6.59;61.83;98677.22;5135494;27;20035;-63
2022/02/02 14:44:18;;;;;;;5.63;1.92;;;;;;;6.02;62.80;98698.31;5142441;27;20387;-63
2022/02/02 14:47:10;;;;;;;4.95;1.95;;;;;;;6.07;63.08;98695.78;5131291;27;20035;-63
2022/02/02 14:49:47;;;;;;;4.38;1.73;;;;;;;6.09;63.36;98689.06;5133184;27;20476;-63
2022/02/02 14:52:29;;;;;;;4.80;1.52;;;;;;;6.11;62.99;98697.50;5128328;27;20060;-64
2022/02/02 15:25:18;;;;;;;2.72;1.08;;;;;;;5.77;64.31;98762.38;5132783;27;20050;-63
2022/02/02 15:27:54;;;;;;;1.65;0.80;;;;;;;5.63;65.08;98763.16;5132687;27;20055;-64
2022/02/02 15:30:29;;;;;;;2.13;1.08;;;;;;;5.57;65.74;98778.31;5130805;27;20035;-64
2022/02/02 15:33:03;;;;;;;3.60;1.20;;;;;;;5.50;66.62;98774.06;5132625;27;20043;-64
2022/02/02 15:35:34;;;;;;;1.67;1.10;;;;;;;5.42;66.77;98768.97;5131224;27;20473;-64
2022/02/02 15:38:06;;;;;;;1.85;1.10;;;;;;;5.30;66.95;98779.03;5121139;27;20488;-64
2022/02/02 15:40:40;;;;;;;1.17;0.80;;;;;;;5.38;67.09;98783.28;5131532;27;20093;-63
2022/02/02 15:43:25;;;;;;;2.80;0.88;;;;;;;5.37;67.57;98791.69;5128691;27;20093;-66
2022/02/02 16:04:40;;;;;;;2.40;1.08;;;;;;;5.36;66.48;98833.03;5116764;28;20044;-64
2022/02/02 16:07:12;;;;;;;5.10;1.10;;;;;;;5.36;66.63;98835.56;5115601;27;20050;-64
2022/02/02 16:09:48;;;;;;;2.80;1.05;;;;;;;5.36;66.85;98843.16;5117099;27;20489;-65
2022/02/02 16:12:38;;;;;;;1.85;1.05;;;;;;;5.35;66.91;98849.03;5116545;28;20040;-65
2022/02/02 16:15:18;;;;;;;9.90;4.18;;;;;;;5.21;67.70;98840.50;5116756;28;20040;-64
2022/02/02 16:18:08;;;;;;;5.95;2.30;;;;;;;5.24;67.62;98855.72;5114381;27;20039;-64
2022/02/02 16:36:40;;;;;;;1.95;1.10;;;;;;;5.25;67.46;98899.56;5117643;27;20051;-64
2022/02/02 16:39:11;;;;;;;2.53;1.00;;;;;;;5.25;67.48;98908.00;5120343;27;20064;-67
2022/02/02 16:44:19;;;;;;;3.30;1.40;;;;;;;5.21;67.32;98918.06;5108714;27;20106;-67
2022/02/02 16:46:48;;;;;;;3.10;0.98;;;;;;;5.15;67.50;98913.81;5120926;27;20494;-67
2022/02/02 16:49:17;;;;;;;3.78;1.02;;;;;;;5.17;67.30;98913.81;5116795;27;20123;-68
2022/02/02 16:51:47;;;;;;;2.65;1.30;;;;;;;5.18;67.59;98923.13;5119302;27;20040;-67
2022/02/02 16:54:23;;;;;;;5.57;1.52;;;;;;;5.21;67.54;98925.66;5115871;28;20036;-67
2022/02/02 17:24:33;;;;;;;6.03;1.50;;;;;;;5.36;65.17;98987.34;5119264;27;20051;-69
2022/02/02 17:29:54;;;;;;;5.90;1.48;;;;;;;5.36;65.15;98992.41;5092289;27;20043;-66
2022/02/02 17:32:42;;;;;;;2.65;1.70;;;;;;;5.40;65.45;98998.34;5115354;27;20039;-66
2022/02/02 17:37:58;;;;;;;5.38;1.52;;;;;;;5.42;65.10;99007.63;5110420;28;20075;-66
2022/02/02 17:40:50;;;;;;;3.63;1.40;;;;;;;5.37;65.06;99009.28;5097530;28;20047;-67
2022/02/02 18:19:55;;;;;;;6.85;1.90;;;;;;;4.93;66.21;99040.88;5094207;28;20058;-66
2022/02/02 18:22:34;;;;;;;2.75;1.10;;;;;;;4.92;66.02;99053.50;5094182;28;20052;-66
2022/02/02 18:25:12;;;;;;;4.78;1.45;;;;;;;4.94;66.28;99062.81;5093962;28;20043;-66
2022/02/02 18:28:03;;;;;;;4.27;1.90;;;;;;;4.94;66.04;99059.41;5094163;28;20127;-66
2022/02/02 18:30:44;;;;;;;3.85;1.90;;;;;;;4.92;66.02;99053.50;5094190;28;20048;-66
2022/02/02 18:33:23;;;;;;;3.92;1.58;;;;;;;4.90;66.40;99071.16;5094017;28;20512;-67
2022/02/02 18:36:02;;;;;;;4.47;1.60;;;;;;;4.86;66.40;99074.50;5094079;28;20192;-67
2022/02/02 18:44:40;;;;;;;3.53;1.42;;;;;;;4.93;66.47;99081.31;5051618;28;20391;-66
2022/02/02 18:47:26;;;;;;;4.18;1.52;;;;;;;4.94;66.33;99072.91;5092611;28;20048;-67
2022/02/02 18:50:16;;;;;;;3.22;1.50;;;;;;;4.98;66.10;99089.81;5092722;28;20048;-66
2022/02/02 18:58:12;;;;;;;3.60;1.43;;;;;;;4.93;66.44;99095.63;5093618;28;20097;-66
2022/02/02 19:00:54;;;;;;;4.03;1.60;;;;;;;4.89;66.65;99094.75;5093815;28;20060;-66
2022/02/02 19:37:11;;;;;;;2.42;1.45;;;;;;;4.70;67.02;99153.50;5097060;28;20048;-67
2022/02/02 19:56:19;;;;;;;2.85;1.30;;;;;;;4.59;67.58;99208.06;5096569;28;20094;-67
2022/02/02 20:04:34;;;;;;;3.72;1.60;;;;;;;4.61;67.18;99209.78;5096377;28;20131;-66
2022/02/02 20:10:02;;;;;;;4.68;1.52;;;;;;;4.51;67.78;99207.13;5096350;28;20214;-68
2022/02/02 20:12:34;;;;;;;6.20;1.67;;;;;;;4.57;67.59;99227.41;5096287;28;20060;-69
2022/02/02 20:15:05;;;;;;;4.03;1.52;;;;;;;4.56;67.94;99225.69;5096275;28;20497;-66
2022/02/02 20:17:38;;;;;;;2.80;1.38;;;;;;;4.56;68.20;99230.75;5096166;28;20142;-67
2022/02/02 20:20:14;;;;;;;3.25;1.40;;;;;;;4.56;68.14;99230.75;5096188;28;20062;-66
2022/02/02 20:22:44;;;;;;;3.85;1.52;;;;;;;4.56;67.87;99238.31;5096466;28;20079;-66
2022/02/02 20:25:24;;;;;;;3.78;1.40;;;;;;;4.56;68.16;99240.84;5096479;28;20453;-66
2022/02/02 20:28:03;;;;;;;3.97;1.45;;;;;;;4.56;67.98;99258.53;5096080;28;20048;-65
2022/02/02 20:30:33;;;;;;;3.60;1.48;;;;;;;4.57;68.18;99265.31;5096062;28;20501;-65
2022/02/02 20:33:02;;;;;;;3.33;1.58;;;;;;;4.57;68.70;99262.78;5096242;28;20071;-66
2022/02/02 20:35:31;;;;;;;2.00;1.20;;;;;;;4.57;68.34;99275.41;5095822;28;20051;-65
2022/02/02 20:38:00;;;;;;;4.82;1.30;;;;;;;4.52;67.89;99269.44;5095832;28;20049;-66
2022/02/02 20:40:31;;;;;;;6.30;1.67;;;;;;;4.38;68.37;99255.72;5095988;28;20471;-66
2022/02/02 20:43:06;;;;;;;3.85;1.45;;;;;;;4.52;68.23;99289.66;5095599;28;20133;-66
2022/02/02 21:05:19;;;;;;;5.00;1.75;;;;;;;4.38;68.72;99336.56;5095182;28;20051;-66
2022/02/02 21:08:17;;;;;;;4.50;1.45;;;;;;;4.39;68.45;99355.97;5095158;28;20051;-66
2022/02/02 21:10:47;;;;;;;2.90;1.58;;;;;;;4.37;68.51;99360.09;5095270;28;20048;-66
2022/02/02 21:15:56;;;;;;;4.85;1.65;;;;;;;4.34;68.32;99380.28;5095349;28;20044;-66
2022/02/02 21:18:32;;;;;;;2.27;1.20;;;;;;;4.34;68.59;99380.28;5094894;28;20093;-66
2022/02/02 21:21:05;;;;;;;3.08;1.67;;;;;;;4.33;68.34;99381.09;5094949;28;20056;-66
2022/02/02 21:26:33;;;;;;;3.20;1.70;;;;;;;4.32;69.08;99397.09;5095267;28;20093;-68
2022/02/02 21:29:27;;;;;;;4.40;1.75;;;;;;;4.33;69.25;99416.44;5095547;28;20424;-68
2022/02/02 21:31:56;;;;;;;5.75;1.70;;;;;;;4.32;69.32;99417.28;4544103;22;20109;-66
2022/02/02 21:34:26;;;;;;;;;;;;;;;4.31;70.04;99418.09;5095097;28;20131;-67
2022/02/02 21:36:55;;;;;;;5.60;2.13;;;;;;;4.26;70.26;99427.25;5095508;28;20337;-66
2022/02/02 21:39:25;;;;;;;5.35;2.00;;;;;;;4.20;70.05;99434.72;5093369;28;20560;-66